createdAt,value
2018-10-17T00:01:03.813Z,99.90
2018-10-17T00:03:31.113Z,99.90
2018-10-17T00:05:58.545Z,99.90
2018-10-17T00:08:26.061Z,99.90
2018-10-17T00:10:53.582Z,99.90
2018-10-17T00:13:21.002Z,99.90
2018-10-17T00:15:48.448Z,99.90
2018-10-17T00:18:15.893Z,99.90
2018-10-17T00:20:43.429Z,99.90
2018-10-17T00:23:10.908Z,99.90
2018-10-17T00:25:38.415Z,99.90
2018-10-17T00:28:05.872Z,99.90
2018-10-17T00:30:33.353Z,99.90
2018-10-17T00:33:00.771Z,99.90
2018-10-17T00:35:28.270Z,99.90
2018-10-17T00:37:55.698Z,99.90
2018-10-17T00:40:24.087Z,99.90
2018-10-17T00:42:52.368Z,99.90
2018-10-17T00:45:19.758Z,99.90
2018-10-17T00:47:47.155Z,99.90
2018-10-17T00:50:14.557Z,99.90
2018-10-17T00:52:42.026Z,99.90
2018-10-17T00:55:09.450Z,99.90
2018-10-17T00:57:36.841Z,99.90
2018-10-17T01:00:04.639Z,99.90
2018-10-17T01:02:32.014Z,99.90
2018-10-17T01:04:59.500Z,99.90
2018-10-17T01:07:26.846Z,99.90
2018-10-17T01:09:54.259Z,99.90
2018-10-17T01:12:21.714Z,99.90
2018-10-17T01:14:49.119Z,99.90
2018-10-17T01:17:16.502Z,99.90
2018-10-17T01:19:43.920Z,99.90
2018-10-17T01:22:11.385Z,99.90
2018-10-17T01:24:38.801Z,99.90
2018-10-17T01:27:06.238Z,99.90
2018-10-17T01:29:33.619Z,99.90
2018-10-17T01:32:00.957Z,99.90
2018-10-17T01:34:28.348Z,99.90
2018-10-17T01:36:55.752Z,99.90
2018-10-17T01:39:23.081Z,99.90
2018-10-17T01:41:50.404Z,99.90
2018-10-17T01:44:17.784Z,99.90
2018-10-17T01:46:45.186Z,99.90
2018-10-17T01:49:12.600Z,99.90
2018-10-17T01:51:40.028Z,99.90
2018-10-17T01:54:07.494Z,99.90
2018-10-17T01:56:35.033Z,99.90
2018-10-17T01:59:02.584Z,99.90
2018-10-17T02:01:30.041Z,99.90
2018-10-17T02:03:57.355Z,99.90
2018-10-17T02:06:24.718Z,99.90
2018-10-17T02:08:52.126Z,99.90
2018-10-17T02:11:19.576Z,99.90
2018-10-17T02:13:46.998Z,99.90
2018-10-17T02:16:14.409Z,99.90
2018-10-17T02:18:41.828Z,99.90
2018-10-17T02:21:09.228Z,99.90
2018-10-17T02:23:36.688Z,99.90
2018-10-17T02:26:04.173Z,99.90
2018-10-17T02:28:31.568Z,99.90
2018-10-17T02:30:58.946Z,99.90
2018-10-17T02:33:26.359Z,99.90
2018-10-17T02:35:53.726Z,99.90
2018-10-17T02:38:21.182Z,99.90
2018-10-17T02:40:48.603Z,99.90
2018-10-17T02:43:16.161Z,99.90
2018-10-17T02:45:43.503Z,99.90
2018-10-17T02:48:10.946Z,99.90
2018-10-17T02:50:38.358Z,99.90
2018-10-17T02:53:05.787Z,99.90
2018-10-17T02:55:33.246Z,99.90
2018-10-17T02:58:00.610Z,99.90
2018-10-17T03:00:28.050Z,99.90
2018-10-17T03:02:55.411Z,99.90
2018-10-17T03:05:22.902Z,99.90
2018-10-17T03:07:50.358Z,99.90
2018-10-17T03:10:17.840Z,99.90
2018-10-17T03:12:45.246Z,99.90
2018-10-17T03:15:12.616Z,99.90
2018-10-17T03:17:40.040Z,99.90
2018-10-17T03:20:08.514Z,99.90
2018-10-17T03:22:35.854Z,99.90
2018-10-17T03:25:03.286Z,99.90
2018-10-17T03:27:30.662Z,99.90
2018-10-17T03:29:58.125Z,99.90
2018-10-17T03:32:25.750Z,99.90
2018-10-17T03:34:53.159Z,99.90
2018-10-17T03:37:20.583Z,99.90
2018-10-17T03:39:47.997Z,99.90
2018-10-17T03:42:15.322Z,99.90
2018-10-17T03:44:42.636Z,99.90
2018-10-17T03:47:10.103Z,99.90
2018-10-17T03:49:37.747Z,99.90
2018-10-17T03:52:05.108Z,99.90
2018-10-17T03:54:32.576Z,99.90
2018-10-17T03:56:59.981Z,99.90
2018-10-17T03:59:27.540Z,99.90
2018-10-17T04:01:54.806Z,99.90
2018-10-17T04:04:22.291Z,99.90
2018-10-17T04:06:49.767Z,99.90
2018-10-17T04:09:17.177Z,99.90
2018-10-17T04:11:44.631Z,99.90
2018-10-17T04:14:12.067Z,99.90
2018-10-17T04:16:39.521Z,99.90
2018-10-17T04:19:07.038Z,99.90
2018-10-17T04:21:34.423Z,99.90
2018-10-17T04:24:01.971Z,99.90
2018-10-17T04:26:29.507Z,99.90
2018-10-17T04:28:56.990Z,99.90
2018-10-17T04:31:24.418Z,99.90
2018-10-17T04:33:51.840Z,99.90
2018-10-17T04:36:19.244Z,99.90
2018-10-17T04:38:46.567Z,99.90
2018-10-17T04:41:13.999Z,99.90
2018-10-17T04:43:41.363Z,99.90
2018-10-17T04:46:08.802Z,99.90
2018-10-17T04:48:36.219Z,99.90
2018-10-17T04:51:03.698Z,99.90
2018-10-17T04:53:31.122Z,99.90
2018-10-17T04:55:58.493Z,99.90
2018-10-17T04:58:25.916Z,99.90
2018-10-17T05:00:54.521Z,99.90
2018-10-17T05:03:22.600Z,99.90
2018-10-17T05:05:50.084Z,99.90
2018-10-17T05:08:17.509Z,99.90
2018-10-17T05:10:45.023Z,99.90
2018-10-17T05:13:12.564Z,99.90
2018-10-17T05:15:39.878Z,99.90
2018-10-17T05:18:07.403Z,99.90
2018-10-17T05:20:34.840Z,99.90
2018-10-17T05:23:02.533Z,99.90
2018-10-17T05:25:29.967Z,99.90
2018-10-17T05:27:57.544Z,99.90
2018-10-17T05:30:24.950Z,99.90
2018-10-17T05:32:52.542Z,99.90
2018-10-17T05:35:20.110Z,99.90
2018-10-17T05:38:35.532Z,99.90
2018-10-17T05:41:16.038Z,99.90
2018-10-17T05:43:43.810Z,99.90
2018-10-17T05:46:11.350Z,99.90
2018-10-17T05:48:38.801Z,99.90
2018-10-17T05:51:06.302Z,99.90
2018-10-17T05:53:38.526Z,99.90
2018-10-17T05:56:06.700Z,99.90
2018-10-17T05:58:34.080Z,99.90
2018-10-17T06:01:01.703Z,99.90
2018-10-17T06:03:29.020Z,99.90
2018-10-17T06:05:56.344Z,99.90
2018-10-17T06:08:23.747Z,99.90
2018-10-17T06:10:51.112Z,99.90
2018-10-17T06:13:18.519Z,99.90
2018-10-17T06:15:46.175Z,99.90
2018-10-17T06:18:14.526Z,99.90
2018-10-17T06:20:41.942Z,99.90
2018-10-17T06:23:09.490Z,99.90
2018-10-17T06:25:36.941Z,99.90
2018-10-17T06:28:04.468Z,99.90
2018-10-17T06:30:31.908Z,99.90
2018-10-17T06:33:01.698Z,99.90
2018-10-17T06:35:29.136Z,99.90
2018-10-17T06:37:56.772Z,99.90
2018-10-17T06:40:24.095Z,99.90
2018-10-17T06:42:51.506Z,99.90
2018-10-17T06:45:21.367Z,99.90
2018-10-17T06:47:49.601Z,99.90
2018-10-17T06:50:18.243Z,99.90
2018-10-17T06:52:45.681Z,99.90
2018-10-17T06:55:13.195Z,99.90
2018-10-17T06:57:40.585Z,99.90
2018-10-17T07:00:08.928Z,99.90
2018-10-17T07:02:36.291Z,99.90
2018-10-17T07:05:04.278Z,99.90
2018-10-17T07:07:31.775Z,99.90
2018-10-17T07:09:59.455Z,99.90
2018-10-17T07:12:26.931Z,99.90
2018-10-17T07:14:54.313Z,99.90
2018-10-17T07:17:24.074Z,99.90
2018-10-17T07:19:51.498Z,99.90
2018-10-17T07:22:19.025Z,99.90
2018-10-17T07:24:46.649Z,99.90
2018-10-17T07:27:14.157Z,99.90
2018-10-17T07:29:41.729Z,99.90
2018-10-17T07:32:08.969Z,99.90
2018-10-17T07:34:36.573Z,99.90
2018-10-17T07:37:04.813Z,99.90
2018-10-17T07:39:32.184Z,99.90
2018-10-17T07:41:59.686Z,99.90
2018-10-17T07:44:27.039Z,99.90
2018-10-17T07:46:54.539Z,99.90
2018-10-17T07:49:22.009Z,99.90
2018-10-17T07:51:49.337Z,99.90
2018-10-17T07:54:18.242Z,99.90
2018-10-17T07:56:46.228Z,99.90
2018-10-17T07:59:14.849Z,99.90
2018-10-17T08:01:43.200Z,99.90
2018-10-17T08:04:11.013Z,99.90
2018-10-17T08:06:38.859Z,99.90
2018-10-17T08:09:09.114Z,99.90
2018-10-17T08:11:36.575Z,99.90
2018-10-17T08:14:04.215Z,99.90
2018-10-17T08:16:31.566Z,99.90
2018-10-17T08:18:59.147Z,99.90
2018-10-17T08:21:26.556Z,99.90
2018-10-17T08:23:53.953Z,99.90
2018-10-17T08:26:21.661Z,99.90
2018-10-17T08:28:49.101Z,99.90
2018-10-17T08:31:16.732Z,99.90
2018-10-17T08:33:44.078Z,99.90
2018-10-17T08:36:12.515Z,99.90
2018-10-17T08:38:39.508Z,99.90
2018-10-17T08:41:07.848Z,99.90
2018-10-17T08:43:35.460Z,99.90
2018-10-17T08:46:03.239Z,99.90
2018-10-17T08:48:31.390Z,99.90
2018-10-17T08:50:59.139Z,99.90
2018-10-17T08:53:26.582Z,99.90
2018-10-17T08:55:53.944Z,99.90
2018-10-17T08:58:21.531Z,99.90
2018-10-17T09:00:48.988Z,99.90
2018-10-17T09:03:16.428Z,99.90
2018-10-17T09:05:43.829Z,99.90
2018-10-17T09:08:11.289Z,99.90
2018-10-17T09:10:38.718Z,99.90
2018-10-17T09:13:06.045Z,99.90
2018-10-17T09:15:38.377Z,99.90
2018-10-17T09:18:01.053Z,99.90
2018-10-17T09:20:28.547Z,99.90
2018-10-17T09:22:55.782Z,99.90
2018-10-17T09:25:23.233Z,99.90
2018-10-17T09:27:50.598Z,99.90
2018-10-17T09:30:18.088Z,99.90
2018-10-17T09:32:45.421Z,99.90
2018-10-17T09:35:13.017Z,99.90
2018-10-17T09:37:40.480Z,99.90
2018-10-17T09:40:09.462Z,99.90
2018-10-17T09:42:36.876Z,99.90
2018-10-17T09:45:05.014Z,99.90
2018-10-17T09:47:32.450Z,99.90
2018-10-17T09:49:59.975Z,99.90
2018-10-17T09:52:27.377Z,99.90
2018-10-17T09:54:54.795Z,99.90
2018-10-17T09:57:22.352Z,99.90
2018-10-17T09:59:49.799Z,99.90
2018-10-17T10:02:17.327Z,99.90
2018-10-17T10:04:44.702Z,99.90
2018-10-17T10:07:12.085Z,99.90
2018-10-17T10:09:40.302Z,99.90
2018-10-17T10:12:12.402Z,99.90
2018-10-17T10:14:39.868Z,99.90
2018-10-17T10:17:07.449Z,99.90
2018-10-17T10:19:34.759Z,99.90
2018-10-17T10:22:02.196Z,99.90
2018-10-17T10:24:29.586Z,99.90
2018-10-17T10:26:57.001Z,99.90
2018-10-17T10:29:24.307Z,99.90
2018-10-17T10:31:51.703Z,99.90
2018-10-17T10:34:19.092Z,99.90
2018-10-17T10:36:46.533Z,99.90
2018-10-17T10:39:14.050Z,99.90
2018-10-17T10:41:41.596Z,99.90
2018-10-17T10:44:09.062Z,99.90
2018-10-17T10:46:36.425Z,99.90
2018-10-17T10:49:04.112Z,99.90
2018-10-17T10:51:31.550Z,99.90
2018-10-17T10:53:59.118Z,99.90
2018-10-17T10:56:26.406Z,99.90
2018-10-17T10:58:53.940Z,99.90
2018-10-17T11:01:21.742Z,99.90
2018-10-17T11:03:49.201Z,99.90
2018-10-17T11:06:16.682Z,99.90
2018-10-17T11:08:44.072Z,99.90
2018-10-17T11:11:11.573Z,99.90
2018-10-17T11:13:39.030Z,99.90
2018-10-17T11:16:06.412Z,99.90
2018-10-17T11:18:34.010Z,99.90
2018-10-17T11:21:01.485Z,99.90
2018-10-17T11:23:28.894Z,99.90
2018-10-17T11:25:56.635Z,99.90
2018-10-17T11:28:24.336Z,99.90
2018-10-17T11:30:52.111Z,99.90
2018-10-17T11:33:19.588Z,99.90
2018-10-17T11:35:46.995Z,99.90
2018-10-17T11:38:14.459Z,99.90
2018-10-17T11:40:41.982Z,99.90
2018-10-17T11:43:09.291Z,99.90
2018-10-17T11:45:36.726Z,99.90
2018-10-17T11:48:04.374Z,99.90
2018-10-17T11:50:31.905Z,99.90
2018-10-17T11:53:00.997Z,99.90
2018-10-17T11:55:28.414Z,99.90
2018-10-17T11:57:55.874Z,99.90
2018-10-17T12:00:23.320Z,99.90
2018-10-17T12:02:50.703Z,99.90
2018-10-17T12:05:18.261Z,99.90
2018-10-17T12:07:45.572Z,99.90
2018-10-17T12:10:13.049Z,99.90
2018-10-17T12:12:40.575Z,99.90
2018-10-17T12:15:10.702Z,99.90
2018-10-17T12:17:38.122Z,99.90
2018-10-17T12:20:07.705Z,99.90
2018-10-17T12:22:35.156Z,99.90
2018-10-17T12:25:02.677Z,99.90
2018-10-17T12:27:30.126Z,99.90
2018-10-17T12:29:57.591Z,99.90
2018-10-17T12:32:25.017Z,99.90
2018-10-17T12:34:52.582Z,99.90
2018-10-17T12:37:19.975Z,99.90
2018-10-17T12:39:47.549Z,99.90
2018-10-17T12:42:14.945Z,99.90
2018-10-17T12:44:42.396Z,99.90
2018-10-17T12:47:09.958Z,99.90
2018-10-17T12:49:37.354Z,99.90
2018-10-17T12:52:04.952Z,99.90
2018-10-17T12:54:32.262Z,99.90
2018-10-17T12:56:59.665Z,99.90
2018-10-17T12:59:27.269Z,99.90
2018-10-17T13:01:54.719Z,99.90
2018-10-17T13:04:22.093Z,99.90
2018-10-17T13:06:49.594Z,99.90
2018-10-17T13:09:17.039Z,99.90
2018-10-17T13:11:44.537Z,99.90
2018-10-17T13:14:11.947Z,99.90
2018-10-17T13:16:39.364Z,99.90
2018-10-17T13:19:06.851Z,99.90
2018-10-17T13:21:34.411Z,99.90
2018-10-17T13:24:01.803Z,99.90
2018-10-17T13:26:29.198Z,99.90
2018-10-17T13:28:56.761Z,99.90
2018-10-17T13:31:24.082Z,99.90
2018-10-17T13:33:51.601Z,99.90
2018-10-17T13:36:19.165Z,99.90
2018-10-17T13:38:46.664Z,99.90
2018-10-17T13:41:14.219Z,99.90
2018-10-17T13:43:41.578Z,99.90
2018-10-17T13:46:08.957Z,99.90
2018-10-17T13:48:36.448Z,99.90
2018-10-17T13:51:03.983Z,99.90
2018-10-17T13:53:31.369Z,99.90
2018-10-17T13:55:58.788Z,99.90
2018-10-17T13:58:26.381Z,99.60
2018-10-17T14:00:53.782Z,99.60
2018-10-17T14:03:21.322Z,97.60
2018-10-17T14:05:48.734Z,96.50
2018-10-17T14:08:16.436Z,96.60
2018-10-17T14:10:43.852Z,94.80
2018-10-17T14:13:11.363Z,94.40
2018-10-17T14:15:38.738Z,93.90
2018-10-17T14:18:06.165Z,93.40
2018-10-17T14:20:33.613Z,93.30
2018-10-17T14:23:01.017Z,94.10
2018-10-17T14:25:28.424Z,95.30
2018-10-17T14:27:55.780Z,96.30
2018-10-17T14:30:23.237Z,97.10
2018-10-17T14:32:50.547Z,98.00
2018-10-17T14:35:17.983Z,98.80
2018-10-17T14:37:45.529Z,99.20
2018-10-17T14:40:12.935Z,99.60
2018-10-17T14:42:40.447Z,99.90
2018-10-17T14:45:09.925Z,99.90
2018-10-17T14:47:37.481Z,99.90
2018-10-17T14:50:04.957Z,99.90
2018-10-17T14:52:32.408Z,99.90
2018-10-17T14:54:59.840Z,99.90
2018-10-17T14:57:27.262Z,99.90
2018-10-17T14:59:54.700Z,99.90
2018-10-17T15:02:22.188Z,99.90
2018-10-17T15:04:49.613Z,99.90
2018-10-17T15:07:16.996Z,99.90
2018-10-17T15:09:44.475Z,99.90
2018-10-17T15:12:11.896Z,99.90
2018-10-17T15:14:39.232Z,99.90
2018-10-17T15:17:06.623Z,99.90
2018-10-17T15:19:34.034Z,99.90
2018-10-17T15:22:01.654Z,99.90
2018-10-17T15:24:29.186Z,99.90
2018-10-17T15:26:56.624Z,99.90
2018-10-17T15:29:23.967Z,99.90
2018-10-17T15:31:51.550Z,99.90
2018-10-17T15:34:18.922Z,99.90
2018-10-17T15:36:47.259Z,99.90
2018-10-17T15:39:14.888Z,99.90
2018-10-17T15:41:42.455Z,99.90
2018-10-17T15:44:09.983Z,99.90
2018-10-17T15:46:37.497Z,99.90
2018-10-17T15:49:06.334Z,99.90
2018-10-17T15:51:33.836Z,99.90
2018-10-17T15:54:01.398Z,99.90
2018-10-17T15:56:28.883Z,99.90
2018-10-17T15:58:56.273Z,99.90
2018-10-17T16:01:23.783Z,99.90
2018-10-17T16:03:51.250Z,99.90
2018-10-17T16:06:18.791Z,99.90
2018-10-17T16:08:46.453Z,99.90
2018-10-17T16:11:13.815Z,99.90
2018-10-17T16:13:41.264Z,99.90
2018-10-17T16:16:08.642Z,99.90
2018-10-17T16:18:36.177Z,99.90
2018-10-17T16:21:03.945Z,99.90
2018-10-17T16:23:31.560Z,99.90
2018-10-17T16:25:59.123Z,99.90
2018-10-17T16:28:26.542Z,99.90
2018-10-17T16:30:54.059Z,99.90
2018-10-17T16:33:21.603Z,99.90
2018-10-17T16:35:48.957Z,99.90
2018-10-17T16:38:16.402Z,99.90
2018-10-17T16:40:43.860Z,99.90
2018-10-17T16:43:11.323Z,99.90
2018-10-17T16:45:38.753Z,99.90
2018-10-17T16:48:06.149Z,99.90
2018-10-17T16:50:33.677Z,99.90
2018-10-17T16:53:01.112Z,99.90
2018-10-17T16:55:28.448Z,99.90
2018-10-17T16:57:55.964Z,99.90
2018-10-17T17:00:23.440Z,99.90
2018-10-17T17:02:50.906Z,99.90
2018-10-17T17:05:18.681Z,99.90
2018-10-17T17:07:50.701Z,99.90
2018-10-17T17:10:18.198Z,99.90
2018-10-17T17:12:45.621Z,99.90
2018-10-17T17:15:13.124Z,99.90
2018-10-17T17:17:40.610Z,99.90
2018-10-17T17:20:09.203Z,99.90
2018-10-17T17:22:38.938Z,99.90
2018-10-17T17:25:06.435Z,99.90
2018-10-17T17:27:34.144Z,99.90
2018-10-17T17:30:01.724Z,99.90
2018-10-17T17:32:29.133Z,99.90
2018-10-17T17:34:56.538Z,99.90
2018-10-17T17:37:24.069Z,99.90
2018-10-17T17:39:51.427Z,99.90
2018-10-17T17:42:19.102Z,99.90
2018-10-17T17:44:47.986Z,99.90
2018-10-17T17:47:15.659Z,99.90
2018-10-17T17:49:43.529Z,99.90
2018-10-17T17:52:11.863Z,99.90
2018-10-17T17:54:39.105Z,99.90
2018-10-17T17:57:07.026Z,99.90
2018-10-17T17:59:34.711Z,99.90
2018-10-17T18:02:02.213Z,99.90
2018-10-17T18:04:29.710Z,99.90
2018-10-17T18:06:57.148Z,99.90
2018-10-17T18:09:24.699Z,99.90
2018-10-17T18:11:52.194Z,99.90
2018-10-17T18:14:19.703Z,99.90
2018-10-17T18:16:47.168Z,99.90
2018-10-17T18:19:16.840Z,99.90
2018-10-17T18:21:47.919Z,99.90
2018-10-17T18:24:24.486Z,99.90
2018-10-17T18:26:52.205Z,99.90
2018-10-17T18:29:38.722Z,99.90
2018-10-17T18:32:20.898Z,99.90
2018-10-17T18:34:54.202Z,99.90
2018-10-17T18:37:22.881Z,99.90
2018-10-17T18:39:56.491Z,99.90
2018-10-17T18:45:12.112Z,99.90
2018-10-17T18:50:48.270Z,99.90
2018-10-17T18:53:23.012Z,99.90
2018-10-17T18:55:55.426Z,99.90
2018-10-17T18:58:24.963Z,99.90
2018-10-17T19:01:10.423Z,99.90
2018-10-17T19:03:39.249Z,99.90
2018-10-17T19:06:14.260Z,99.90
2018-10-17T19:08:41.898Z,99.90
2018-10-17T19:11:09.371Z,99.90
2018-10-17T19:14:24.538Z,99.90
2018-10-17T19:25:27.694Z,99.90
2018-10-17T19:31:40.799Z,99.90
2018-10-17T19:34:20.322Z,99.90
2018-10-17T19:58:01.541Z,99.90
2018-10-17T20:00:39.270Z,99.90
2018-10-17T20:03:06.828Z,99.90
2018-10-17T20:05:34.270Z,99.90
2018-10-17T20:08:01.670Z,99.90
2018-10-17T20:10:29.132Z,99.90
2018-10-17T20:12:56.596Z,99.90
2018-10-17T20:15:24.044Z,99.90
2018-10-17T20:17:51.480Z,99.90
2018-10-17T20:20:18.938Z,99.90
2018-10-17T20:22:46.376Z,99.90
2018-10-17T20:25:13.855Z,99.90
2018-10-17T20:27:41.239Z,99.90
2018-10-17T20:30:09.390Z,99.90
2018-10-17T20:32:36.851Z,99.90
2018-10-17T20:35:04.980Z,99.90
2018-10-17T20:37:32.504Z,99.90
2018-10-17T20:39:59.888Z,99.90
2018-10-17T20:42:27.360Z,99.90
2018-10-17T20:44:54.732Z,99.90
2018-10-17T20:47:22.263Z,99.90
2018-10-17T20:49:49.714Z,99.90
2018-10-17T20:52:17.175Z,99.90
2018-10-17T20:54:44.567Z,99.90
2018-10-17T20:57:11.978Z,99.90
2018-10-17T20:59:39.457Z,99.90
2018-10-17T21:02:07.133Z,99.90
2018-10-17T21:04:34.544Z,99.90
2018-10-17T21:07:01.958Z,99.90
2018-10-17T21:09:29.594Z,99.90
2018-10-17T21:11:57.161Z,99.90
2018-10-17T21:14:24.723Z,99.90
2018-10-17T21:16:52.269Z,99.90
2018-10-17T21:19:19.727Z,99.90
2018-10-17T21:21:47.293Z,99.90
2018-10-17T21:24:14.767Z,99.90
2018-10-17T21:26:42.223Z,99.90
2018-10-17T21:29:09.713Z,99.90
2018-10-17T21:31:38.866Z,99.90
2018-10-17T21:34:06.427Z,99.90
2018-10-17T21:36:33.861Z,99.90
2018-10-17T21:39:01.247Z,99.90
2018-10-17T21:41:28.739Z,99.90
2018-10-17T21:43:56.161Z,99.90
2018-10-17T21:46:23.583Z,99.90
2018-10-17T21:48:51.095Z,99.90
2018-10-17T21:51:18.519Z,99.90
2018-10-17T21:53:45.931Z,99.90
2018-10-17T21:56:13.463Z,99.90
2018-10-17T21:58:40.841Z,99.90
2018-10-17T22:01:08.312Z,99.90
2018-10-17T22:03:35.677Z,99.90
2018-10-17T22:06:03.125Z,99.90
2018-10-17T22:08:30.465Z,99.90
2018-10-17T22:10:57.857Z,99.90
2018-10-17T22:13:25.370Z,99.90
2018-10-17T22:15:52.858Z,99.90
2018-10-17T22:18:20.243Z,99.90
2018-10-17T22:20:47.654Z,99.90
2018-10-17T22:23:15.144Z,99.90
2018-10-17T22:25:42.509Z,99.90
2018-10-17T22:28:10.115Z,99.90
2018-10-17T22:30:37.506Z,99.90
2018-10-17T22:33:05.289Z,99.90
2018-10-17T22:35:32.756Z,99.90
2018-10-17T22:38:00.268Z,99.90
2018-10-17T22:40:27.690Z,99.90
2018-10-17T22:42:55.330Z,99.90
2018-10-17T22:45:22.750Z,99.90
2018-10-17T22:47:50.142Z,99.90
2018-10-17T22:50:17.632Z,99.90
2018-10-17T22:52:44.968Z,99.90
2018-10-17T22:55:12.493Z,99.90
2018-10-17T22:57:39.905Z,99.90
2018-10-17T23:00:08.035Z,99.90
2018-10-17T23:02:35.466Z,99.90
2018-10-17T23:05:02.968Z,99.90
2018-10-17T23:07:30.346Z,99.90
2018-10-17T23:09:57.772Z,99.90
2018-10-17T23:12:25.206Z,99.90
2018-10-17T23:14:52.663Z,99.90
2018-10-17T23:17:20.202Z,99.90
2018-10-17T23:19:47.672Z,99.90
2018-10-17T23:22:15.060Z,99.90
2018-10-17T23:24:42.480Z,99.90
2018-10-17T23:27:09.911Z,99.90
2018-10-17T23:29:37.418Z,99.90
2018-10-17T23:32:05.103Z,99.90
2018-10-17T23:34:32.566Z,99.90
2018-10-17T23:36:59.995Z,99.90
2018-10-17T23:39:27.400Z,99.90
2018-10-17T23:41:54.875Z,99.90
2018-10-17T23:44:22.335Z,99.90
2018-10-17T23:46:49.714Z,99.90
2018-10-17T23:49:17.181Z,99.90
2018-10-17T23:51:44.631Z,99.90
2018-10-17T23:54:12.134Z,99.90
2018-10-17T23:56:39.489Z,99.90
2018-10-17T23:59:06.931Z,99.90
